createdAt,value
2018-12-01T00:02:27.712Z,100.00
2018-12-01T00:05:16.011Z,100.00
2018-12-01T00:07:50.527Z,100.00
2018-12-01T00:10:29.592Z,100.00
2018-12-01T00:13:02.232Z,100.00
2018-12-01T00:15:32.852Z,100.00
2018-12-01T00:18:03.476Z,100.00
2018-12-01T00:20:36.485Z,100.00
2018-12-01T00:23:08.463Z,100.00
2018-12-01T00:25:39.003Z,100.00
2018-12-01T00:28:10.963Z,100.00
2018-12-01T00:30:41.646Z,100.00
2018-12-01T00:33:12.127Z,100.00
2018-12-01T00:35:42.592Z,100.00
2018-12-01T00:38:13.253Z,100.00
2018-12-01T00:40:43.751Z,100.00
2018-12-01T00:43:14.399Z,100.00
2018-12-01T00:45:44.934Z,100.00
2018-12-01T00:48:16.770Z,100.00
2018-12-01T00:50:47.361Z,100.00
2018-12-01T00:53:17.994Z,100.00
2018-12-01T00:55:48.527Z,100.00
2018-12-01T00:58:19.113Z,100.00
2018-12-01T01:00:50.554Z,100.00
2018-12-01T01:03:21.189Z,100.00
2018-12-01T01:05:51.803Z,100.00
2018-12-01T01:08:22.481Z,100.00
2018-12-01T01:10:53.049Z,100.00
2018-12-01T01:13:23.672Z,100.00
2018-12-01T01:15:54.377Z,100.00
2018-12-01T01:18:25.065Z,100.00
2018-12-01T01:20:55.692Z,100.00
2018-12-01T01:23:26.400Z,100.00
2018-12-01T01:25:57.068Z,100.00
2018-12-01T01:28:27.982Z,100.00
2018-12-01T01:30:58.638Z,100.00
2018-12-01T01:33:31.197Z,100.00
2018-12-01T01:36:02.708Z,100.00
2018-12-01T01:38:34.197Z,100.00
2018-12-01T01:41:07.667Z,100.00
2018-12-01T01:43:38.669Z,100.00
2018-12-01T01:46:09.130Z,100.00
2018-12-01T01:48:39.908Z,100.00
2018-12-01T01:51:10.457Z,100.00
2018-12-01T01:53:41.040Z,100.00
2018-12-01T01:56:11.664Z,100.00
2018-12-01T01:58:42.258Z,100.00
2018-12-01T02:01:14.025Z,100.00
2018-12-01T02:03:46.277Z,100.00
2018-12-01T02:06:18.400Z,100.00
2018-12-01T02:08:49.282Z,100.00
2018-12-01T02:11:19.964Z,100.00
2018-12-01T02:13:50.578Z,100.00
2018-12-01T02:16:21.090Z,100.00
2018-12-01T02:18:51.736Z,100.00
2018-12-01T02:21:22.514Z,100.00
2018-12-01T02:23:53.119Z,100.00
2018-12-01T02:26:24.532Z,100.00
2018-12-01T02:28:56.009Z,100.00
2018-12-01T02:31:26.559Z,100.00
2018-12-01T02:33:57.273Z,100.00
2018-12-01T02:36:27.925Z,100.00
2018-12-01T02:38:58.489Z,100.00
2018-12-01T02:41:29.159Z,100.00
2018-12-01T02:44:10.052Z,100.00
2018-12-01T02:46:51.009Z,100.00
2018-12-01T02:49:21.509Z,100.00
2018-12-01T02:51:52.059Z,100.00
2018-12-01T02:54:22.639Z,100.00
2018-12-01T02:56:54.598Z,100.00
2018-12-01T02:59:25.112Z,100.00
2018-12-01T03:01:56.202Z,100.00
2018-12-01T03:04:26.782Z,100.00
2018-12-01T03:06:57.238Z,100.00
2018-12-01T03:09:30.686Z,100.00
2018-12-01T03:12:01.295Z,100.00
2018-12-01T03:14:31.834Z,100.00
2018-12-01T03:17:02.452Z,100.00
2018-12-01T03:19:33.939Z,100.00
2018-12-01T03:22:04.579Z,100.00
2018-12-01T03:24:35.141Z,100.00
2018-12-01T03:27:05.758Z,100.00
2018-12-01T03:29:36.463Z,100.00
2018-12-01T03:32:07.757Z,100.00
2018-12-01T03:34:38.331Z,100.00
2018-12-01T03:37:08.952Z,100.00
2018-12-01T03:39:39.523Z,100.00
2018-12-01T03:42:10.020Z,100.00
2018-12-01T03:44:40.556Z,100.00
2018-12-01T03:47:11.154Z,100.00
2018-12-01T03:49:42.852Z,100.00
2018-12-01T03:52:16.520Z,100.00
2018-12-01T03:54:48.335Z,100.00
2018-12-01T03:57:18.892Z,100.00
2018-12-01T03:59:49.478Z,100.00
2018-12-01T04:02:20.154Z,100.00
2018-12-01T04:04:51.513Z,100.00
2018-12-01T04:07:23.790Z,100.00
2018-12-01T04:09:54.400Z,100.00
2018-12-01T04:12:24.983Z,100.00
2018-12-01T04:14:55.491Z,100.00
2018-12-01T04:17:26.069Z,100.00
2018-12-01T04:19:56.734Z,100.00
2018-12-01T04:22:27.238Z,100.00
2018-12-01T04:24:58.744Z,100.00
2018-12-01T04:27:29.411Z,100.00
2018-12-01T04:30:05.618Z,100.00
2018-12-01T04:32:36.182Z,100.00
2018-12-01T04:35:07.073Z,100.00
2018-12-01T04:37:37.846Z,100.00
2018-12-01T04:40:11.213Z,100.00
2018-12-01T04:42:43.476Z,100.00
2018-12-01T04:45:14.077Z,100.00
2018-12-01T04:47:44.704Z,100.00
2018-12-01T04:50:18.511Z,100.00
2018-12-01T04:52:49.927Z,100.00
2018-12-01T04:55:22.125Z,100.00
2018-12-01T04:57:52.654Z,100.00
2018-12-01T05:00:23.510Z,100.00
2018-12-01T05:02:54.118Z,100.00
2018-12-01T05:05:31.009Z,100.00
2018-12-01T05:08:01.511Z,100.00
2018-12-01T05:10:32.356Z,100.00
2018-12-01T05:13:02.913Z,100.00
2018-12-01T05:15:37.323Z,100.00
2018-12-01T05:18:09.366Z,100.00
2018-12-01T05:20:42.042Z,100.00
2018-12-01T05:23:13.924Z,100.00
2018-12-01T05:25:44.607Z,100.00
2018-12-01T05:28:15.688Z,100.00
2018-12-01T05:30:46.313Z,100.00
2018-12-01T05:33:16.780Z,100.00
2018-12-01T05:35:47.357Z,100.00
2018-12-01T05:38:17.845Z,100.00
2018-12-01T05:40:52.766Z,100.00
2018-12-01T05:43:24.805Z,100.00
2018-12-01T05:45:58.822Z,100.00
2018-12-01T05:48:30.760Z,100.00
2018-12-01T05:51:01.549Z,100.00
2018-12-01T05:53:32.526Z,100.00
2018-12-01T05:56:04.057Z,100.00
2018-12-01T05:58:34.951Z,100.00
2018-12-01T06:01:05.553Z,100.00
2018-12-01T06:03:36.092Z,100.00
2018-12-01T06:06:07.107Z,100.00
2018-12-01T06:08:37.665Z,100.00
2018-12-01T06:11:08.263Z,100.00
2018-12-01T06:13:38.803Z,100.00
2018-12-01T06:16:09.387Z,100.00
2018-12-01T06:18:39.909Z,100.00
2018-12-01T06:21:14.757Z,100.00
2018-12-01T06:23:47.570Z,100.00
2018-12-01T06:26:23.034Z,100.00
2018-12-01T06:28:53.590Z,100.00
2018-12-01T06:31:24.505Z,100.00
2018-12-01T06:34:10.051Z,100.00
2018-12-01T06:36:41.312Z,100.00
2018-12-01T06:39:18.256Z,100.00
2018-12-01T06:41:48.821Z,100.00
2018-12-01T06:44:19.853Z,100.00
2018-12-01T06:46:50.908Z,100.00
2018-12-01T06:49:21.439Z,100.00
2018-12-01T06:51:51.978Z,100.00
2018-12-01T06:54:22.483Z,96.07
2018-12-01T06:56:53.101Z,96.12
2018-12-01T06:59:23.721Z,95.31
2018-12-01T07:01:54.300Z,92.05
2018-12-01T07:04:24.823Z,92.90
2018-12-01T07:06:55.417Z,95.81
2018-12-01T07:09:25.934Z,93.62
2018-12-01T07:11:58.467Z,85.87
2018-12-01T07:14:29.043Z,89.11
2018-12-01T07:16:59.714Z,91.12
2018-12-01T07:19:30.369Z,89.08
2018-12-01T07:22:01.006Z,85.38
2018-12-01T07:24:31.645Z,83.90
2018-12-01T07:27:02.303Z,85.35
2018-12-01T07:29:32.905Z,88.78
2018-12-01T07:32:03.687Z,88.89
2018-12-01T07:34:34.329Z,86.60
2018-12-01T07:39:53.334Z,89.26
2018-12-01T07:42:23.967Z,90.75
2018-12-01T07:44:54.565Z,89.77
2018-12-01T07:47:34.213Z,90.87
2018-12-01T07:50:05.799Z,88.75
2018-12-01T07:52:36.631Z,89.11
2018-12-01T07:55:08.336Z,89.24
2018-12-01T07:57:40.253Z,90.56
2018-12-01T08:00:14.181Z,90.71
2018-12-01T08:02:45.992Z,87.29
2018-12-01T08:05:17.636Z,86.35
2018-12-01T08:07:48.850Z,89.67
2018-12-01T08:10:20.294Z,84.34
2018-12-01T08:12:51.307Z,83.35
2018-12-01T08:15:21.789Z,82.53
2018-12-01T08:17:53.297Z,82.30
2018-12-01T08:20:23.860Z,76.18
2018-12-01T08:22:54.516Z,77.13
2018-12-01T08:25:25.065Z,75.82
2018-12-01T08:27:57.043Z,71.88
2018-12-01T08:30:28.984Z,70.00
2018-12-01T08:32:59.821Z,70.27
2018-12-01T08:35:31.194Z,69.82
2018-12-01T08:38:01.910Z,68.55
2018-12-01T08:40:33.342Z,73.78
2018-12-01T08:43:03.887Z,68.21
2018-12-01T08:45:34.568Z,66.81
2018-12-01T08:48:05.163Z,69.01
2018-12-01T08:50:35.851Z,64.58
2018-12-01T08:53:06.685Z,65.81
2018-12-01T08:55:37.302Z,64.52
2018-12-01T08:58:07.989Z,64.09
2018-12-01T09:00:41.391Z,60.86
2018-12-01T09:03:17.489Z,64.31
2018-12-01T09:05:48.154Z,61.14
2018-12-01T09:08:18.757Z,58.45
2018-12-01T09:10:49.353Z,59.31
2018-12-01T09:13:19.902Z,67.43
2018-12-01T09:15:50.375Z,60.71
2018-12-01T09:18:21.053Z,61.71
2018-12-01T09:20:51.646Z,59.24
2018-12-01T09:23:23.047Z,57.35
2018-12-01T09:25:53.607Z,57.36
2018-12-01T09:28:24.174Z,54.83
2018-12-01T09:30:54.684Z,57.25
2018-12-01T09:33:25.430Z,53.49
2018-12-01T09:35:56.070Z,58.08
2018-12-01T09:38:26.609Z,58.57
2018-12-01T09:40:57.232Z,59.68
2018-12-01T09:43:27.740Z,57.13
2018-12-01T09:45:58.432Z,56.40
2018-12-01T09:48:28.991Z,57.92
2018-12-01T09:50:59.651Z,55.62
2018-12-01T09:53:30.178Z,53.47
2018-12-01T09:56:00.811Z,56.95
2018-12-01T09:58:31.430Z,57.06
2018-12-01T10:01:02.719Z,54.10
2018-12-01T10:03:32.661Z,52.47
2018-12-01T10:06:03.250Z,55.23
2018-12-01T10:08:33.770Z,50.61
2018-12-01T10:11:04.380Z,54.62
2018-12-01T10:13:35.063Z,51.27
2018-12-01T10:16:05.665Z,50.88
2018-12-01T10:18:36.177Z,48.16
2018-12-01T10:21:06.763Z,50.50
2018-12-01T10:23:37.447Z,48.24
2018-12-01T10:26:07.984Z,48.15
2018-12-01T10:28:38.653Z,46.00
2018-12-01T10:31:09.319Z,45.61
2018-12-01T10:33:39.794Z,45.25
2018-12-01T10:36:10.385Z,45.50
2018-12-01T10:38:40.847Z,45.22
2018-12-01T10:41:11.515Z,44.98
2018-12-01T10:43:42.185Z,43.92
2018-12-01T10:46:12.727Z,43.24
2018-12-01T10:48:43.212Z,46.79
2018-12-01T10:51:13.828Z,48.16
2018-12-01T10:53:44.709Z,47.14
2018-12-01T10:56:15.295Z,46.48
2018-12-01T10:58:45.889Z,47.98
2018-12-01T11:01:21.427Z,48.68
2018-12-01T11:03:52.032Z,46.52
2018-12-01T11:06:22.733Z,48.76
2018-12-01T11:08:53.405Z,50.92
2018-12-01T11:11:23.989Z,51.00
2018-12-01T11:13:54.787Z,50.96
2018-12-01T11:16:25.262Z,50.05
2018-12-01T11:18:55.810Z,51.42
2018-12-01T11:21:26.486Z,54.24
2018-12-01T11:23:57.222Z,54.46
2018-12-01T11:26:32.838Z,56.92
2018-12-01T11:29:03.615Z,57.92
2018-12-01T11:31:34.182Z,61.12
2018-12-01T11:34:06.431Z,61.01
2018-12-01T11:36:37.084Z,63.41
2018-12-01T11:39:09.636Z,63.58
2018-12-01T11:41:40.198Z,64.62
2018-12-01T11:44:10.858Z,67.78
2018-12-01T11:46:41.521Z,71.47
2018-12-01T11:49:12.089Z,71.83
2018-12-01T11:51:42.730Z,72.75
2018-12-01T11:54:13.426Z,72.93
2018-12-01T11:56:44.034Z,72.39
2018-12-01T11:59:14.645Z,73.36
2018-12-01T12:01:45.277Z,74.42
2018-12-01T12:04:17.443Z,75.37
2018-12-01T12:06:48.028Z,77.94
2018-12-01T12:09:18.691Z,79.42
2018-12-01T12:11:49.223Z,80.37
2018-12-01T12:14:20.613Z,80.09
2018-12-01T12:16:51.246Z,82.45
2018-12-01T12:19:21.980Z,80.84
2018-12-01T12:21:52.710Z,80.65
2018-12-01T12:24:23.241Z,82.18
2018-12-01T12:26:53.802Z,82.19
2018-12-01T12:29:25.801Z,83.72
2018-12-01T12:31:56.493Z,82.64
2018-12-01T12:34:27.312Z,82.88
2018-12-01T12:36:57.864Z,85.42
2018-12-01T12:39:28.484Z,84.18
2018-12-01T12:41:59.604Z,83.29
2018-12-01T12:44:30.236Z,83.47
2018-12-01T12:47:00.889Z,84.61
2018-12-01T12:49:32.063Z,85.14
2018-12-01T12:52:02.581Z,87.16
2018-12-01T12:54:33.366Z,87.62
2018-12-01T12:57:03.912Z,90.44
2018-12-01T12:59:34.583Z,92.00
2018-12-01T13:02:05.152Z,93.17
2018-12-01T13:04:35.860Z,92.84
2018-12-01T13:07:06.607Z,86.53
2018-12-01T13:09:37.281Z,88.50
2018-12-01T13:12:08.780Z,90.00
2018-12-01T13:14:39.479Z,89.13
2018-12-01T13:17:10.089Z,92.50
2018-12-01T13:19:40.692Z,94.02
2018-12-01T13:22:11.325Z,94.44
2018-12-01T13:24:42.360Z,93.66
2018-12-01T13:27:13.116Z,94.01
2018-12-01T13:29:45.602Z,95.09
2018-12-01T13:32:16.331Z,93.50
2018-12-01T13:34:47.199Z,93.70
2018-12-01T13:37:18.432Z,92.85
2018-12-01T13:39:49.023Z,94.47
2018-12-01T13:42:19.735Z,96.16
2018-12-01T13:44:50.421Z,94.44
2018-12-01T13:47:21.105Z,96.19
2018-12-01T13:49:51.758Z,96.84
2018-12-01T13:52:22.509Z,97.20
2018-12-01T13:54:53.058Z,97.25
2018-12-01T13:57:23.733Z,97.44
2018-12-01T13:59:55.593Z,98.57
2018-12-01T14:02:26.224Z,99.92
2018-12-01T14:04:57.188Z,100.00
2018-12-01T14:07:27.968Z,100.00
2018-12-01T14:09:59.207Z,99.95
2018-12-01T14:12:35.381Z,100.00
2018-12-01T14:15:16.725Z,100.00
2018-12-01T14:17:57.071Z,100.00
2018-12-01T14:20:28.273Z,100.00
2018-12-01T14:22:58.870Z,100.00
2018-12-01T14:25:29.532Z,100.00
2018-12-01T14:28:04.283Z,100.00
2018-12-01T14:30:34.870Z,100.00
2018-12-01T14:33:05.532Z,100.00
2018-12-01T14:35:38.283Z,100.00
2018-12-01T14:38:12.981Z,100.00
2018-12-01T14:40:46.083Z,100.00
2018-12-01T14:43:16.692Z,100.00
2018-12-01T14:45:52.520Z,100.00
2018-12-01T14:48:23.842Z,100.00
2018-12-01T14:50:54.536Z,100.00
2018-12-01T14:53:25.237Z,100.00
2018-12-01T14:55:55.898Z,100.00
2018-12-01T14:58:27.220Z,100.00
2018-12-01T15:00:59.470Z,100.00
2018-12-01T15:03:30.479Z,100.00
2018-12-01T15:06:01.066Z,100.00
2018-12-01T15:08:31.683Z,100.00
2018-12-01T15:11:02.309Z,100.00
2018-12-01T15:13:33.043Z,100.00
2018-12-01T15:16:03.796Z,100.00
2018-12-01T15:18:34.479Z,100.00
2018-12-01T15:21:05.212Z,100.00
2018-12-01T15:23:35.934Z,100.00
2018-12-01T15:26:06.603Z,100.00
2018-12-01T15:28:37.227Z,100.00
2018-12-01T15:31:07.923Z,100.00
2018-12-01T15:33:38.778Z,100.00
2018-12-01T15:36:09.548Z,100.00
2018-12-01T15:38:40.259Z,100.00
2018-12-01T15:41:11.028Z,100.00
2018-12-01T15:43:41.716Z,100.00
2018-12-01T15:46:12.410Z,100.00
2018-12-01T15:48:43.051Z,100.00
2018-12-01T15:51:13.876Z,100.00
2018-12-01T15:53:44.541Z,100.00
2018-12-01T15:56:15.223Z,100.00
2018-12-01T15:58:45.882Z,100.00
2018-12-01T16:01:16.692Z,100.00
2018-12-01T16:06:30.749Z,100.00
2018-12-01T16:09:01.463Z,100.00
2018-12-01T16:11:32.156Z,100.00
2018-12-01T16:14:03.012Z,100.00
2018-12-01T16:16:35.291Z,100.00
2018-12-01T16:19:06.612Z,100.00
2018-12-01T16:21:37.241Z,100.00
2018-12-01T16:24:07.906Z,100.00
2018-12-01T16:26:38.411Z,100.00
2018-12-01T16:29:08.935Z,100.00
2018-12-01T16:31:39.558Z,100.00
2018-12-01T16:34:10.108Z,100.00
2018-12-01T16:36:40.888Z,100.00
2018-12-01T16:39:12.038Z,100.00
2018-12-01T16:41:42.661Z,100.00
2018-12-01T16:44:13.337Z,100.00
2018-12-01T16:46:44.005Z,100.00
2018-12-01T16:49:14.807Z,100.00
2018-12-01T16:51:45.531Z,100.00
2018-12-01T16:54:16.347Z,100.00
2018-12-01T16:56:46.967Z,100.00
2018-12-01T16:59:17.576Z,100.00
2018-12-01T17:01:48.222Z,100.00
2018-12-01T17:04:18.788Z,100.00
2018-12-01T17:06:49.497Z,100.00
2018-12-01T17:09:20.161Z,100.00
2018-12-01T17:11:50.806Z,100.00
2018-12-01T17:14:21.487Z,100.00
2018-12-01T17:16:52.142Z,100.00
2018-12-01T17:19:22.734Z,100.00
2018-12-01T17:21:53.401Z,100.00
2018-12-01T17:24:23.938Z,100.00
2018-12-01T17:26:54.581Z,100.00
2018-12-01T17:29:25.210Z,100.00
2018-12-01T17:31:55.733Z,100.00
2018-12-01T17:34:26.288Z,100.00
2018-12-01T17:36:57.016Z,100.00
2018-12-01T17:39:27.544Z,100.00
2018-12-01T17:41:59.960Z,100.00
2018-12-01T17:44:30.476Z,100.00
2018-12-01T17:47:01.080Z,100.00
2018-12-01T17:49:32.676Z,100.00
2018-12-01T17:52:03.413Z,100.00
2018-12-01T17:54:34.008Z,100.00
2018-12-01T17:57:04.816Z,100.00
2018-12-01T17:59:35.457Z,100.00
2018-12-01T18:02:06.173Z,100.00
2018-12-01T18:04:36.743Z,100.00
2018-12-01T18:07:07.761Z,100.00
2018-12-01T18:09:38.272Z,100.00
2018-12-01T18:12:08.890Z,100.00
2018-12-01T18:14:39.480Z,100.00
2018-12-01T18:17:10.031Z,100.00
2018-12-01T18:19:40.689Z,100.00
2018-12-01T18:22:11.303Z,100.00
2018-12-01T18:24:41.942Z,100.00
2018-12-01T18:27:12.459Z,100.00
2018-12-01T18:29:43.070Z,100.00
2018-12-01T18:32:13.655Z,100.00
2018-12-01T18:34:44.177Z,100.00
2018-12-01T18:37:14.918Z,100.00
2018-12-01T18:39:45.485Z,100.00
2018-12-01T18:42:16.086Z,100.00
2018-12-01T18:44:46.644Z,100.00
2018-12-01T18:47:17.330Z,100.00
2018-12-01T18:49:47.840Z,100.00
2018-12-01T18:52:18.419Z,100.00
2018-12-01T18:54:48.931Z,100.00
2018-12-01T18:57:19.579Z,100.00
2018-12-01T18:59:50.086Z,100.00
2018-12-01T19:02:20.669Z,100.00
2018-12-01T19:04:51.277Z,100.00
2018-12-01T19:10:02.690Z,100.00
2018-12-01T19:12:33.288Z,100.00
2018-12-01T19:15:03.826Z,100.00
2018-12-01T19:17:34.321Z,100.00
2018-12-01T19:20:05.390Z,100.00
2018-12-01T19:22:36.084Z,100.00
2018-12-01T19:25:11.837Z,100.00
2018-12-01T19:27:42.731Z,100.00
2018-12-01T19:30:16.252Z,100.00
2018-12-01T19:32:48.312Z,100.00
2018-12-01T19:35:19.164Z,100.00
2018-12-01T19:37:52.865Z,100.00
2018-12-01T19:40:28.710Z,100.00
2018-12-01T19:42:59.004Z,100.00
2018-12-01T19:45:29.599Z,100.00
2018-12-01T19:48:00.427Z,100.00
2018-12-01T19:50:33.538Z,100.00
2018-12-01T19:53:04.127Z,100.00
2018-12-01T19:55:34.843Z,100.00
2018-12-01T19:58:14.967Z,100.00
2018-12-01T20:00:47.437Z,100.00
2018-12-01T20:03:19.340Z,100.00
2018-12-01T20:05:49.964Z,100.00
2018-12-01T20:08:21.781Z,100.00
2018-12-01T20:10:57.610Z,100.00
2018-12-01T20:13:30.589Z,100.00
2018-12-01T20:16:04.345Z,100.00
2018-12-01T20:18:34.994Z,100.00
2018-12-01T20:21:06.085Z,100.00
2018-12-01T20:23:36.676Z,100.00
2018-12-01T20:26:07.221Z,100.00
2018-12-01T20:28:37.898Z,100.00
2018-12-01T20:31:08.469Z,100.00
2018-12-01T20:33:39.121Z,100.00
2018-12-01T20:36:12.697Z,100.00
2018-12-01T20:38:50.582Z,100.00
2018-12-01T20:41:21.219Z,100.00
2018-12-01T20:43:51.951Z,100.00
2018-12-01T20:46:22.490Z,100.00
2018-12-01T20:48:54.584Z,100.00
2018-12-01T20:51:25.227Z,100.00
2018-12-01T20:54:02.504Z,100.00
2018-12-01T20:56:35.293Z,100.00
2018-12-01T20:59:06.207Z,100.00
2018-12-01T21:01:36.848Z,100.00
2018-12-01T21:04:07.576Z,100.00
2018-12-01T21:06:38.186Z,100.00
2018-12-01T21:09:11.453Z,100.00
2018-12-01T21:11:41.910Z,100.00
2018-12-01T21:14:12.555Z,100.00
2018-12-01T21:16:43.157Z,100.00
2018-12-01T21:19:13.885Z,100.00
2018-12-01T21:21:44.487Z,100.00
2018-12-01T21:24:15.135Z,100.00
2018-12-01T21:26:45.766Z,100.00
2018-12-01T21:29:16.661Z,100.00
2018-12-01T21:31:47.274Z,100.00
2018-12-01T21:34:17.949Z,100.00
2018-12-01T21:36:48.618Z,100.00
2018-12-01T21:39:19.141Z,100.00
2018-12-01T21:41:49.735Z,100.00
2018-12-01T21:44:20.397Z,100.00
2018-12-01T21:46:51.099Z,100.00
2018-12-01T21:49:21.861Z,100.00
2018-12-01T21:51:52.451Z,100.00
2018-12-01T21:54:23.151Z,100.00
2018-12-01T21:56:53.806Z,100.00
2018-12-01T21:59:24.428Z,100.00
2018-12-01T22:01:55.097Z,100.00
2018-12-01T22:04:25.672Z,100.00
2018-12-01T22:07:00.492Z,100.00
2018-12-01T22:09:31.227Z,100.00
2018-12-01T22:12:01.919Z,100.00
2018-12-01T22:14:32.505Z,100.00
2018-12-01T22:17:03.103Z,100.00
2018-12-01T22:19:33.720Z,100.00
2018-12-01T22:22:04.385Z,100.00
2018-12-01T22:24:35.544Z,100.00
2018-12-01T22:27:06.158Z,100.00
2018-12-01T22:29:37.990Z,100.00
2018-12-01T22:32:08.642Z,100.00
2018-12-01T22:34:39.340Z,100.00
2018-12-01T22:37:09.873Z,100.00
2018-12-01T22:39:40.388Z,100.00
2018-12-01T22:42:11.915Z,100.00
2018-12-01T22:44:42.478Z,100.00
2018-12-01T22:47:13.175Z,100.00
2018-12-01T22:49:45.581Z,100.00
2018-12-01T22:52:16.237Z,100.00
2018-12-01T22:54:46.835Z,100.00
2018-12-01T22:57:17.369Z,100.00
2018-12-01T22:59:47.962Z,100.00
2018-12-01T23:02:18.521Z,100.00
2018-12-01T23:04:53.282Z,100.00
2018-12-01T23:07:23.950Z,100.00
2018-12-01T23:09:54.657Z,100.00
2018-12-01T23:12:25.212Z,100.00
2018-12-01T23:14:57.160Z,100.00
2018-12-01T23:17:27.788Z,100.00
2018-12-01T23:19:58.345Z,100.00
2018-12-01T23:22:28.911Z,100.00
2018-12-01T23:25:00.143Z,100.00
2018-12-01T23:27:30.656Z,100.00
2018-12-01T23:30:01.355Z,100.00
2018-12-01T23:32:31.970Z,100.00
2018-12-01T23:35:02.503Z,100.00
2018-12-01T23:37:33.000Z,100.00
2018-12-01T23:40:04.016Z,100.00
2018-12-01T23:42:34.578Z,100.00
2018-12-01T23:45:06.473Z,100.00
2018-12-01T23:47:36.975Z,100.00
2018-12-01T23:50:12.001Z,100.00
2018-12-01T23:52:42.847Z,100.00
2018-12-01T23:55:14.847Z,100.00
2018-12-01T23:57:45.528Z,100.00
